Time;durP1;ratioP1;P1;durP2;ratioP2;P2;SDS_P1;SDS_P2;PMS_P1;PMS_P2;Temp;Humidity;BMP_temperature;BMP_pressure;BME280_temperature;BME280_humidity;BME280_pressure;Samples;Min_cycle;Max_cycle;Signal;HPM_P1;HPM_P2
2022/10/01 00:00:05;;;;;;;;;;;;;;;;;;348729;28;1837;-64
2022/10/01 00:00:16;;;;;;;;;;;;;;;;;;350338;28;983;-65
2022/10/01 00:00:26;;;;;;;;;;;;;;;;;;351465;28;936;-64
2022/10/01 00:00:36;;;;;;;;;;;;;;;;;;351440;28;968;-64
2022/10/01 00:00:47;;;;;;;;;;;;;;;;;;351467;28;979;-66
2022/10/01 00:00:57;;;;;;;;;;;;;;;;;;351410;28;916;-64
2022/10/01 00:01:09;;;;;;;;;;;;;;;;;;351525;28;821;-65
2022/10/01 00:01:19;;;;;;;;;;;;;;;;;;351464;28;944;-64
2022/10/01 00:01:29;;;;;;;;;;;;;;;;;;351415;28;963;-65
2022/10/01 00:01:39;;;;;;;;;;;;;;;;;;351500;28;1003;-65
2022/10/01 00:01:49;;;;;;;;;;;;;;;;;;351447;28;967;-65
2022/10/01 00:02:00;;;;;;;;;;;;;;;;;;349124;28;2237;-64
2022/10/01 00:02:10;;;;;;;;;;;;;;;;;;351520;28;932;-65
2022/10/01 00:02:20;;;;;;;;;;;;;;;;;;351377;28;880;-65
2022/10/01 00:02:30;;;;;;;;;;;;;;;;;;351499;28;808;-65
2022/10/01 00:02:41;;;;;;;;;;;;;;;;;;351453;28;972;-64
2022/10/01 00:02:53;;;;;;;;;;;;;;;;;;351450;28;908;-65
2022/10/01 00:03:03;;;;;;;;;;;;;;;;;;351370;28;952;-64
2022/10/01 00:03:13;;;;;;;;;;;;;;;;;;351400;28;1126;-64
2022/10/01 00:03:24;;;;;;;;;;;;;;;;;;351472;28;860;-63
2022/10/01 00:03:35;;;;;;;;;;;;;;;;;;349982;28;1363;-64
2022/10/01 00:03:46;;;;;;;;;;;;;;;;;;349971;28;987;-65
2022/10/01 00:03:56;;;;;;;;;;;;;;;;;;349275;28;2282;-65
2022/10/01 00:04:07;;;;;;;;;;;;;;;;;;349277;28;1907;-64
2022/10/01 00:04:17;;;;;;;;;;;;;;;;;;351425;28;832;-65
2022/10/01 00:04:27;;;;;;;;;;;;;;;;;;351441;28;968;-64
2022/10/01 00:04:38;;;;;;;;;;;;;;;;;;348179;28;1681;-64
2022/10/01 00:04:49;;;;;;;;;;;;;;;;;;349424;28;1673;-63
2022/10/01 00:05:00;;;;;;;;;;;;;;;;;;350084;28;979;-65
2022/10/01 00:05:10;;;;;;;;;;;;;;;;;;350008;28;1008;-64
2022/10/01 00:05:20;;;;;;;;;;;;;;;;;;351476;28;824;-65
2022/10/01 00:05:30;;;;;;;;;;;;;;;;;;349745;28;2197;-64
2022/10/01 00:05:41;;;;;;;;;;;;;;;;;;350752;28;909;-64
2022/10/01 00:06:09;;;;;;;;;;;;;;;;;;351414;28;976;-65
2022/10/01 00:06:21;;;;;;;;;;;;;;;;;;348640;28;964;-64
2022/10/01 00:06:31;;;;;;;;;;;;;;;;;;348666;28;976;-65
2022/10/01 00:06:41;;;;;;;;;;;;;;;;;;348673;28;810;-65
2022/10/01 00:06:51;;;;;;;;;;;;;;;;;;348677;28;964;-65
2022/10/01 00:07:03;;;;;;;;;;;;;;;;;;348690;28;897;-64
2022/10/01 00:07:14;;;;;;;;;;;;;;;;;;348587;28;913;-65
2022/10/01 00:07:24;;;;;;;;;;;;;;;;;;347659;28;1752;-65
2022/10/01 00:07:37;;;;;;;;;;;;;;;;;;348709;28;1792;-65
2022/10/01 00:07:48;;;;;;;;;;;;;;;;;;348696;28;969;-65
2022/10/01 00:07:58;;;;;;;;;;;;;;;;;;349092;28;1020;-65
2022/10/01 00:08:08;;;;;;;;;;;;;;;;;;350045;28;912;-64
2022/10/01 00:08:18;;;;;;;;;;;;;;;;;;349100;28;2254;-65
2022/10/01 00:08:29;;;;;;;;;;;;;;;;;;350507;28;1904;-64
2022/10/01 00:08:40;;;;;;;;;;;;;;;;;;351398;28;948;-65
2022/10/01 00:08:50;;;;;;;;;;;;;;;;;;351413;28;956;-65
2022/10/01 00:09:01;;;;;;;;;;;;;;;;;;351450;28;901;-65
2022/10/01 00:09:11;;;;;;;;;;;;;;;;;;351477;28;909;-64
2022/10/01 00:09:21;;;;;;;;;;;;;;;;;;351329;28;980;-65
2022/10/01 00:09:32;;;;;;;;;;;;;;;;;;351467;28;962;-64
2022/10/01 00:09:42;;;;;;;;;;;;;;;;;;351423;28;941;-64
2022/10/01 00:09:52;;;;;;;;;;;;;;;;;;351426;28;1016;-65
2022/10/01 00:10:03;;;;;;;;;;;;;;;;;;349249;28;2189;-64
2022/10/01 00:10:14;;;;;;;;;;;;;;;;;;350802;28;948;-64
2022/10/01 00:10:25;;;;;;;;;;;;;;;;;;349353;28;2210;-64
2022/10/01 00:10:39;;;;;;;;;;;;;;;;;;349363;28;1962;-64
2022/10/01 00:10:49;;;;;;;;;;;;;;;;;;349491;28;1755;-64
2022/10/01 00:11:00;;;;;;;;;;;;;;;;;;350011;28;900;-65
2022/10/01 00:11:11;;;;;;;;;;;;;;;;;;350067;28;861;-64
2022/10/01 00:11:24;;;;;;;;;;;;;;;;;;349982;28;1213;-64
2022/10/01 00:11:34;;;;;;;;;;;;;;;;;;350064;28;980;-65
2022/10/01 00:11:45;;;;;;;;;;;;;;;;;;350040;28;804;-65
2022/10/01 00:11:55;;;;;;;;;;;;;;;;;;350064;28;868;-64
2022/10/01 00:12:06;;;;;;;;;;;;;;;;;;350090;28;960;-64
2022/10/01 00:12:16;;;;;;;;;;;;;;;;;;349998;28;996;-67
2022/10/01 00:12:26;;;;;;;;;;;;;;;;;;350130;28;864;-65
2022/10/01 00:12:37;;;;;;;;;;;;;;;;;;350085;28;856;-65
2022/10/01 00:12:47;;;;;;;;;;;;;;;;;;349986;28;960;-65
2022/10/01 00:12:58;;;;;;;;;;;;;;;;;;350048;28;929;-65
2022/10/01 00:13:09;;;;;;;;;;;;;;;;;;349368;28;2296;-64
2022/10/01 00:13:19;;;;;;;;;;;;;;;;;;350266;28;1701;-65
2022/10/01 00:13:29;;;;;;;;;;;;;;;;;;351426;28;857;-64
2022/10/01 00:13:41;;;;;;;;;;;;;;;;;;351406;28;1910;-65
2022/10/01 00:13:52;;;;;;;;;;;;;;;;;;351370;28;936;-64
2022/10/01 00:14:02;;;;;;;;;;;;;;;;;;351462;28;932;-64
2022/10/01 00:14:12;;;;;;;;;;;;;;;;;;351487;28;801;-64
2022/10/01 00:14:23;;;;;;;;;;;;;;;;;;351467;28;928;-65
2022/10/01 00:14:33;;;;;;;;;;;;;;;;;;351473;28;936;-65
2022/10/01 00:14:43;;;;;;;;;;;;;;;;;;351360;28;895;-65
2022/10/01 00:14:54;;;;;;;;;;;;;;;;;;351406;28;964;-64
2022/10/01 00:15:08;;;;;;;;;;;;;;;;;;351426;28;905;-65
2022/10/01 00:15:18;;;;;;;;;;;;;;;;;;349571;28;1538;-64
2022/10/01 00:15:28;;;;;;;;;;;;;;;;;;351503;28;805;-65
2022/10/01 00:15:39;;;;;;;;;;;;;;;;;;351362;28;844;-65
2022/10/01 00:15:49;;;;;;;;;;;;;;;;;;351465;28;929;-65
2022/10/01 00:16:02;;;;;;;;;;;;;;;;;;351440;28;861;-65
2022/10/01 00:16:14;;;;;;;;;;;;;;;;;;351462;28;995;-65
2022/10/01 00:16:25;;;;;;;;;;;;;;;;;;351428;28;972;-65
2022/10/01 00:16:37;;;;;;;;;;;;;;;;;;350174;28;1182;-65
2022/10/01 00:16:47;;;;;;;;;;;;;;;;;;350050;28;1007;-65
2022/10/01 00:16:57;;;;;;;;;;;;;;;;;;350027;28;853;-65
2022/10/01 00:17:07;;;;;;;;;;;;;;;;;;350061;28;1019;-65
2022/10/01 00:17:17;;;;;;;;;;;;;;;;;;350014;28;1020;-65
2022/10/01 00:17:28;;;;;;;;;;;;;;;;;;349931;28;1234;-65
2022/10/01 00:17:38;;;;;;;;;;;;;;;;;;350047;28;849;-65
2022/10/01 00:17:48;;;;;;;;;;;;;;;;;;350037;28;892;-65
2022/10/01 00:17:58;;;;;;;;;;;;;;;;;;350014;28;916;-64
2022/10/01 00:18:09;;;;;;;;;;;;;;;;;;349999;28;1035;-64
2022/10/01 00:18:19;;;;;;;;;;;;;;;;;;350049;28;1185;-65
2022/10/01 00:18:29;;;;;;;;;;;;;;;;;;349909;28;1677;-64
2022/10/01 00:18:41;;;;;;;;;;;;;;;;;;349936;28;905;-65
2022/10/01 00:18:52;;;;;;;;;;;;;;;;;;349922;28;908;-64
2022/10/01 00:19:02;;;;;;;;;;;;;;;;;;349927;28;818;-65
2022/10/01 00:19:13;;;;;;;;;;;;;;;;;;349967;28;917;-65
2022/10/01 00:19:24;;;;;;;;;;;;;;;;;;349925;28;986;-65
2022/10/01 00:19:34;;;;;;;;;;;;;;;;;;349937;28;1004;-66
2022/10/01 00:19:44;;;;;;;;;;;;;;;;;;349874;28;971;-65
2022/10/01 00:19:54;;;;;;;;;;;;;;;;;;349965;28;928;-65
2022/10/01 00:20:05;;;;;;;;;;;;;;;;;;348930;28;2286;-64
2022/10/01 00:20:16;;;;;;;;;;;;;;;;;;349836;28;2033;-64
2022/10/01 00:20:27;;;;;;;;;;;;;;;;;;350022;28;952;-65
2022/10/01 00:20:42;;;;;;;;;;;;;;;;;;349710;28;1907;-65
2022/10/01 00:20:52;;;;;;;;;;;;;;;;;;348655;28;925;-65
2022/10/01 00:21:06;;;;;;;;;;;;;;;;;;348900;28;1327;-64
2022/10/01 00:21:18;;;;;;;;;;;;;;;;;;348686;28;924;-65
2022/10/01 00:21:30;;;;;;;;;;;;;;;;;;348632;28;1035;-65
2022/10/01 00:21:40;;;;;;;;;;;;;;;;;;348675;28;872;-65
2022/10/01 00:21:50;;;;;;;;;;;;;;;;;;348610;28;909;-65
2022/10/01 00:22:01;;;;;;;;;;;;;;;;;;348639;28;845;-65
2022/10/01 00:22:11;;;;;;;;;;;;;;;;;;348627;28;981;-65
2022/10/01 00:22:21;;;;;;;;;;;;;;;;;;348710;28;858;-64
2022/10/01 00:22:33;;;;;;;;;;;;;;;;;;348624;28;1140;-65
2022/10/01 00:22:43;;;;;;;;;;;;;;;;;;348632;28;892;-65
2022/10/01 00:22:53;;;;;;;;;;;;;;;;;;348662;28;924;-64
2022/10/01 00:23:03;;;;;;;;;;;;;;;;;;348594;28;1008;-64
2022/10/01 00:23:14;;;;;;;;;;;;;;;;;;348629;28;970;-65
2022/10/01 00:23:24;;;;;;;;;;;;;;;;;;348650;28;964;-65
2022/10/01 00:23:35;;;;;;;;;;;;;;;;;;348674;28;833;-64
2022/10/01 00:23:45;;;;;;;;;;;;;;;;;;348614;28;924;-65
2022/10/01 00:24:00;;;;;;;;;;;;;;;;;;348574;28;917;-64
2022/10/01 00:24:11;;;;;;;;;;;;;;;;;;348585;28;925;-64
2022/10/01 00:24:21;;;;;;;;;;;;;;;;;;348705;28;937;-64
2022/10/01 00:24:32;;;;;;;;;;;;;;;;;;348669;28;818;-64
2022/10/01 00:24:42;;;;;;;;;;;;;;;;;;348655;28;917;-64
2022/10/01 00:24:52;;;;;;;;;;;;;;;;;;348651;28;933;-65
2022/10/01 00:25:03;;;;;;;;;;;;;;;;;;348397;28;2230;-64
2022/10/01 00:25:13;;;;;;;;;;;;;;;;;;350904;28;1031;-65
2022/10/01 00:25:24;;;;;;;;;;;;;;;;;;350865;28;1368;-65
2022/10/01 00:25:34;;;;;;;;;;;;;;;;;;349378;28;1483;-65
2022/10/01 00:25:44;;;;;;;;;;;;;;;;;;349995;28;917;-65
2022/10/01 00:25:55;;;;;;;;;;;;;;;;;;350073;28;644;-65
2022/10/01 00:26:08;;;;;;;;;;;;;;;;;;349962;28;948;-65
2022/10/01 00:26:20;;;;;;;;;;;;;;;;;;350023;28;853;-65
2022/10/01 00:26:32;;;;;;;;;;;;;;;;;;350016;28;1027;-65
2022/10/01 00:26:44;;;;;;;;;;;;;;;;;;350065;28;979;-65
2022/10/01 00:26:54;;;;;;;;;;;;;;;;;;350051;28;1037;-65
2022/10/01 00:27:04;;;;;;;;;;;;;;;;;;349949;28;1046;-65
2022/10/01 00:27:15;;;;;;;;;;;;;;;;;;350069;28;864;-65
2022/10/01 00:27:25;;;;;;;;;;;;;;;;;;350054;28;916;-65
2022/10/01 00:27:35;;;;;;;;;;;;;;;;;;348800;28;2230;-65
2022/10/01 00:27:46;;;;;;;;;;;;;;;;;;350788;28;921;-65
2022/10/01 00:27:56;;;;;;;;;;;;;;;;;;351493;28;853;-65
2022/10/01 00:28:06;;;;;;;;;;;;;;;;;;351348;28;801;-65
2022/10/01 00:28:16;;;;;;;;;;;;;;;;;;351477;28;901;-65
2022/10/01 00:28:27;;;;;;;;;;;;;;;;;;351384;28;960;-66
2022/10/01 00:28:37;;;;;;;;;;;;;;;;;;349070;28;2241;-65
2022/10/01 00:28:51;;;;;;;;;;;;;;;;;;348696;28;928;-65
2022/10/01 00:29:06;;;;;;;;;;;;;;;;;;348651;28;991;-65
2022/10/01 00:29:16;;;;;;;;;;;;;;;;;;348584;28;920;-65
2022/10/01 00:29:26;;;;;;;;;;;;;;;;;;348655;28;970;-65
2022/10/01 00:29:37;;;;;;;;;;;;;;;;;;348642;28;912;-65
2022/10/01 00:29:47;;;;;;;;;;;;;;;;;;348672;28;932;-65
2022/10/01 00:29:57;;;;;;;;;;;;;;;;;;348221;28;2175;-65
2022/10/01 00:30:08;;;;;;;;;;;;;;;;;;350031;28;1710;-65
2022/10/01 00:30:18;;;;;;;;;;;;;;;;;;351392;28;790;-65
2022/10/01 00:30:28;;;;;;;;;;;;;;;;;;351441;28;908;-65
2022/10/01 00:30:45;;;;;;;;;;;;;;;;;;351396;28;848;-64
2022/10/01 00:30:55;;;;;;;;;;;;;;;;;;351517;28;848;-65
2022/10/01 00:31:06;;;;;;;;;;;;;;;;;;351429;28;860;-65
2022/10/01 00:31:16;;;;;;;;;;;;;;;;;;351417;28;855;-65
2022/10/01 00:31:27;;;;;;;;;;;;;;;;;;351319;28;1066;-65
2022/10/01 00:31:37;;;;;;;;;;;;;;;;;;351454;28;796;-65
2022/10/01 00:31:47;;;;;;;;;;;;;;;;;;351446;28;1007;-64
2022/10/01 00:31:58;;;;;;;;;;;;;;;;;;350510;28;2257;-65
2022/10/01 00:32:08;;;;;;;;;;;;;;;;;;349767;28;1686;-65
2022/10/01 00:32:19;;;;;;;;;;;;;;;;;;351336;28;1018;-65
2022/10/01 00:32:31;;;;;;;;;;;;;;;;;;351460;28;908;-65
2022/10/01 00:32:41;;;;;;;;;;;;;;;;;;351384;28;1101;-65
2022/10/01 00:32:52;;;;;;;;;;;;;;;;;;351366;28;998;-65
2022/10/01 00:33:02;;;;;;;;;;;;;;;;;;351502;28;999;-65
2022/10/01 00:33:12;;;;;;;;;;;;;;;;;;351410;28;1059;-65
2022/10/01 00:33:24;;;;;;;;;;;;;;;;;;351445;28;923;-65
2022/10/01 00:33:36;;;;;;;;;;;;;;;;;;351466;28;971;-65
2022/10/01 00:33:47;;;;;;;;;;;;;;;;;;349803;28;1689;-65
2022/10/01 00:33:58;;;;;;;;;;;;;;;;;;348505;28;1740;-65
2022/10/01 00:34:09;;;;;;;;;;;;;;;;;;349784;28;2006;-65
2022/10/01 00:34:20;;;;;;;;;;;;;;;;;;349908;28;833;-65
2022/10/01 00:34:30;;;;;;;;;;;;;;;;;;349117;28;2242;-65
2022/10/01 00:34:40;;;;;;;;;;;;;;;;;;350848;28;936;-65
2022/10/01 00:34:52;;;;;;;;;;;;;;;;;;351346;28;915;-65
2022/10/01 00:35:02;;;;;;;;;;;;;;;;;;351420;28;920;-65
2022/10/01 00:35:13;;;;;;;;;;;;;;;;;;351471;28;848;-65
2022/10/01 00:35:23;;;;;;;;;;;;;;;;;;350256;28;2253;-65
2022/10/01 00:35:33;;;;;;;;;;;;;;;;;;348728;28;1718;-65
2022/10/01 00:35:44;;;;;;;;;;;;;;;;;;351040;28;2043;-65
2022/10/01 00:35:54;;;;;;;;;;;;;;;;;;351353;28;916;-65
2022/10/01 00:36:06;;;;;;;;;;;;;;;;;;351394;28;943;-64
2022/10/01 00:36:16;;;;;;;;;;;;;;;;;;351418;28;971;-65
2022/10/01 00:36:26;;;;;;;;;;;;;;;;;;351354;28;868;-65
2022/10/01 00:36:36;;;;;;;;;;;;;;;;;;351423;28;980;-65
2022/10/01 00:36:48;;;;;;;;;;;;;;;;;;351422;28;956;-65
2022/10/01 00:36:58;;;;;;;;;;;;;;;;;;351334;28;1007;-65
2022/10/01 00:37:09;;;;;;;;;;;;;;;;;;351396;28;967;-65
2022/10/01 00:37:19;;;;;;;;;;;;;;;;;;351420;28;982;-65
2022/10/01 00:37:29;;;;;;;;;;;;;;;;;;351397;28;817;-65
2022/10/01 00:37:41;;;;;;;;;;;;;;;;;;351416;28;998;-65
2022/10/01 00:37:51;;;;;;;;;;;;;;;;;;351444;28;861;-65
2022/10/01 00:38:02;;;;;;;;;;;;;;;;;;351424;28;1042;-65
2022/10/01 00:38:14;;;;;;;;;;;;;;;;;;351380;28;963;-65
2022/10/01 00:38:24;;;;;;;;;;;;;;;;;;349005;28;2205;-64
2022/10/01 00:38:35;;;;;;;;;;;;;;;;;;348625;28;924;-65
2022/10/01 00:38:46;;;;;;;;;;;;;;;;;;348654;28;908;-65
2022/10/01 00:39:00;;;;;;;;;;;;;;;;;;348610;28;1143;-65
2022/10/01 00:39:11;;;;;;;;;;;;;;;;;;348591;28;951;-65
2022/10/01 00:39:22;;;;;;;;;;;;;;;;;;348630;28;971;-65
2022/10/01 00:39:32;;;;;;;;;;;;;;;;;;348701;28;1006;-65
2022/10/01 00:39:43;;;;;;;;;;;;;;;;;;348636;28;967;-65
2022/10/01 00:39:53;;;;;;;;;;;;;;;;;;348633;28;936;-65
2022/10/01 00:40:04;;;;;;;;;;;;;;;;;;348649;28;908;-65
2022/10/01 00:40:15;;;;;;;;;;;;;;;;;;348665;28;1446;-65
2022/10/01 00:40:26;;;;;;;;;;;;;;;;;;348504;28;2215;-65
2022/10/01 00:40:36;;;;;;;;;;;;;;;;;;351330;28;821;-65
2022/10/01 00:40:46;;;;;;;;;;;;;;;;;;351343;28;982;-65
2022/10/01 00:40:57;;;;;;;;;;;;;;;;;;350823;28;2210;-65
2022/10/01 00:41:08;;;;;;;;;;;;;;;;;;349463;28;1813;-65
2022/10/01 00:41:19;;;;;;;;;;;;;;;;;;350778;28;1043;-65
2022/10/01 00:41:31;;;;;;;;;;;;;;;;;;351384;28;916;-65
2022/10/01 00:41:41;;;;;;;;;;;;;;;;;;351186;28;1308;-65
2022/10/01 00:41:51;;;;;;;;;;;;;;;;;;351320;28;990;-65
2022/10/01 00:42:02;;;;;;;;;;;;;;;;;;351280;28;880;-65
2022/10/01 00:42:17;;;;;;;;;;;;;;;;;;351311;28;920;-65
2022/10/01 00:42:28;;;;;;;;;;;;;;;;;;348814;28;2270;-65
2022/10/01 00:42:38;;;;;;;;;;;;;;;;;;351287;28;971;-65
2022/10/01 00:42:48;;;;;;;;;;;;;;;;;;351285;28;936;-65
2022/10/01 00:42:58;;;;;;;;;;;;;;;;;;351309;28;908;-65
2022/10/01 00:43:18;;;;;;;;;;;;;;;;;;351335;28;951;-66
2022/10/01 00:43:30;;;;;;;;;;;;;;;;;;351303;28;956;-64
2022/10/01 00:43:45;;;;;;;;;;;;;;;;;;351368;28;978;-64
2022/10/01 00:44:16;;;;;;;;;;;;;;;;;;351450;28;924;-65
2022/10/01 00:44:26;;;;;;;;;;;;;;;;;;346990;28;999;-65
2022/10/01 00:44:36;;;;;;;;;;;;;;;;;;345863;28;1413;-64
2022/10/01 00:44:48;;;;;;;;;;;;;;;;;;348273;28;989;-65
2022/10/01 00:45:00;;;;;;;;;;;;;;;;;;349272;28;2206;-65
2022/10/01 00:45:11;;;;;;;;;;;;;;;;;;350638;28;967;-65
2022/10/01 00:45:22;;;;;;;;;;;;;;;;;;351417;28;908;-65
2022/10/01 00:45:32;;;;;;;;;;;;;;;;;;351392;28;908;-65
2022/10/01 00:45:42;;;;;;;;;;;;;;;;;;351462;28;769;-65
2022/10/01 00:45:54;;;;;;;;;;;;;;;;;;351357;28;928;-65
2022/10/01 00:46:08;;;;;;;;;;;;;;;;;;351411;28;924;-65
2022/10/01 00:46:21;;;;;;;;;;;;;;;;;;351419;28;947;-64
2022/10/01 00:46:39;;;;;;;;;;;;;;;;;;351406;28;940;-64
2022/10/01 00:46:50;;;;;;;;;;;;;;;;;;351304;28;920;-64
2022/10/01 00:47:07;;;;;;;;;;;;;;;;;;349845;28;2234;-65
2022/10/01 00:47:24;;;;;;;;;;;;;;;;;;349733;28;1900;-64
2022/10/01 00:47:38;;;;;;;;;;;;;;;;;;351384;28;971;-65
2022/10/01 00:47:53;;;;;;;;;;;;;;;;;;351393;28;988;-65
2022/10/01 00:48:03;;;;;;;;;;;;;;;;;;351345;28;1016;-64
2022/10/01 00:48:13;;;;;;;;;;;;;;;;;;351413;28;773;-66
2022/10/01 00:48:24;;;;;;;;;;;;;;;;;;351417;28;912;-64
2022/10/01 00:48:39;;;;;;;;;;;;;;;;;;351395;28;987;-64
2022/10/01 00:48:57;;;;;;;;;;;;;;;;;;351397;28;948;-64
2022/10/01 00:49:15;;;;;;;;;;;;;;;;;;351373;28;948;-65
2022/10/01 00:49:27;;;;;;;;;;;;;;;;;;349542;28;1685;-64
2022/10/01 00:49:39;;;;;;;;;;;;;;;;;;350251;28;996;-65
2022/10/01 00:49:51;;;;;;;;;;;;;;;;;;351313;28;999;-64
2022/10/01 00:50:05;;;;;;;;;;;;;;;;;;351417;28;928;-64
2022/10/01 00:50:25;;;;;;;;;;;;;;;;;;351406;28;868;-64
2022/10/01 00:50:37;;;;;;;;;;;;;;;;;;351370;28;924;-65
2022/10/01 00:50:48;;;;;;;;;;;;;;;;;;351405;28;944;-64
2022/10/01 00:50:59;;;;;;;;;;;;;;;;;;351359;28;936;-64
2022/10/01 00:51:10;;;;;;;;;;;;;;;;;;351388;28;944;-65
2022/10/01 00:51:20;;;;;;;;;;;;;;;;;;349454;28;2258;-65
2022/10/01 00:51:38;;;;;;;;;;;;;;;;;;349239;28;1947;-64
2022/10/01 00:51:51;;;;;;;;;;;;;;;;;;351013;28;2390;-64
2022/10/01 00:52:04;;;;;;;;;;;;;;;;;;350271;28;1918;-64
2022/10/01 00:52:17;;;;;;;;;;;;;;;;;;351355;28;876;-65
2022/10/01 00:52:30;;;;;;;;;;;;;;;;;;351436;28;785;-65
2022/10/01 00:52:42;;;;;;;;;;;;;;;;;;351374;28;1011;-64
2022/10/01 00:52:54;;;;;;;;;;;;;;;;;;351394;28;936;-64
2022/10/01 00:53:07;;;;;;;;;;;;;;;;;;351356;28;970;-64
2022/10/01 00:53:19;;;;;;;;;;;;;;;;;;351415;28;992;-64
2022/10/01 00:53:30;;;;;;;;;;;;;;;;;;351423;28;884;-64
2022/10/01 00:53:40;;;;;;;;;;;;;;;;;;351305;28;1977;-64
2022/10/01 00:53:52;;;;;;;;;;;;;;;;;;351383;28;940;-65
2022/10/01 00:54:09;;;;;;;;;;;;;;;;;;351380;28;1019;-65
2022/10/01 00:54:22;;;;;;;;;;;;;;;;;;351300;28;1010;-65
2022/10/01 00:54:44;;;;;;;;;;;;;;;;;;350181;28;2206;-64
2022/10/01 00:55:02;;;;;;;;;;;;;;;;;;349744;28;937;-65
2022/10/01 00:55:15;;;;;;;;;;;;;;;;;;349937;28;991;-64
2022/10/01 00:55:27;;;;;;;;;;;;;;;;;;349975;28;1035;-65
2022/10/01 00:55:43;;;;;;;;;;;;;;;;;;349970;28;861;-64
2022/10/01 00:55:55;;;;;;;;;;;;;;;;;;350009;28;912;-64
2022/10/01 00:56:06;;;;;;;;;;;;;;;;;;350011;28;1015;-65
2022/10/01 00:56:17;;;;;;;;;;;;;;;;;;350001;28;975;-65
2022/10/01 00:56:27;;;;;;;;;;;;;;;;;;349912;28;933;-64
2022/10/01 00:56:38;;;;;;;;;;;;;;;;;;348904;28;2210;-64
2022/10/01 00:56:50;;;;;;;;;;;;;;;;;;348680;28;1741;-64
2022/10/01 00:57:01;;;;;;;;;;;;;;;;;;348614;28;967;-64
2022/10/01 00:57:14;;;;;;;;;;;;;;;;;;348515;28;1864;-64
2022/10/01 00:57:25;;;;;;;;;;;;;;;;;;350041;28;864;-64
2022/10/01 00:57:35;;;;;;;;;;;;;;;;;;349993;28;920;-64
2022/10/01 00:57:46;;;;;;;;;;;;;;;;;;349927;28;916;-65
2022/10/01 00:57:56;;;;;;;;;;;;;;;;;;349980;28;1000;-64
2022/10/01 00:58:07;;;;;;;;;;;;;;;;;;349997;28;991;-64
2022/10/01 00:58:19;;;;;;;;;;;;;;;;;;350010;28;983;-64
2022/10/01 00:58:29;;;;;;;;;;;;;;;;;;349984;28;921;-65
2022/10/01 00:58:41;;;;;;;;;;;;;;;;;;348911;28;1967;-64
2022/10/01 00:58:54;;;;;;;;;;;;;;;;;;348659;28;774;-64
2022/10/01 00:59:05;;;;;;;;;;;;;;;;;;348573;28;992;-64
2022/10/01 00:59:16;;;;;;;;;;;;;;;;;;348572;28;1031;-64
2022/10/01 00:59:26;;;;;;;;;;;;;;;;;;348399;28;1465;-65
2022/10/01 00:59:37;;;;;;;;;;;;;;;;;;348633;28;853;-64
2022/10/01 00:59:48;;;;;;;;;;;;;;;;;;348553;28;901;-64
2022/10/01 01:00:01;;;;;;;;;;;;;;;;;;348591;28;937;-65
2022/10/01 01:00:12;;;;;;;;;;;;;;;;;;348656;28;1034;-64
2022/10/01 01:00:24;;;;;;;;;;;;;;;;;;348585;28;932;-64
2022/10/01 01:00:35;;;;;;;;;;;;;;;;;;348657;28;770;-64
2022/10/01 01:00:46;;;;;;;;;;;;;;;;;;348640;28;884;-64
2022/10/01 01:00:56;;;;;;;;;;;;;;;;;;348615;28;1039;-65
2022/10/01 01:01:06;;;;;;;;;;;;;;;;;;348570;28;984;-65
2022/10/01 01:01:17;;;;;;;;;;;;;;;;;;348611;28;913;-65
2022/10/01 01:01:28;;;;;;;;;;;;;;;;;;348566;28;987;-64
2022/10/01 01:01:38;;;;;;;;;;;;;;;;;;348629;28;892;-64
2022/10/01 01:01:48;;;;;;;;;;;;;;;;;;348606;28;826;-65
2022/10/01 01:01:58;;;;;;;;;;;;;;;;;;348599;28;973;-65
2022/10/01 01:02:10;;;;;;;;;;;;;;;;;;348626;28;805;-64
2022/10/01 01:02:20;;;;;;;;;;;;;;;;;;348633;28;929;-65
2022/10/01 01:02:30;;;;;;;;;;;;;;;;;;348574;28;979;-65
2022/10/01 01:02:40;;;;;;;;;;;;;;;;;;349132;28;1364;-65
2022/10/01 01:02:51;;;;;;;;;;;;;;;;;;350016;28;876;-65
2022/10/01 01:03:01;;;;;;;;;;;;;;;;;;350016;28;1800;-64
2022/10/01 01:03:12;;;;;;;;;;;;;;;;;;350022;28;849;-65
2022/10/01 01:03:22;;;;;;;;;;;;;;;;;;349898;28;1028;-65
2022/10/01 01:03:32;;;;;;;;;;;;;;;;;;349905;28;975;-65
2022/10/01 01:03:42;;;;;;;;;;;;;;;;;;349993;28;944;-64
2022/10/01 01:03:53;;;;;;;;;;;;;;;;;;349977;28;808;-64
2022/10/01 01:04:15;;;;;;;;;;;;;;;;;;348982;28;1484;-64
2022/10/01 01:04:25;;;;;;;;;;;;;;;;;;348577;28;1418;-66
2022/10/01 01:04:39;;;;;;;;;;;;;;;;;;348618;28;932;-65
2022/10/01 01:04:50;;;;;;;;;;;;;;;;;;348597;28;916;-65
2022/10/01 01:05:00;;;;;;;;;;;;;;;;;;348595;28;816;-64
2022/10/01 01:05:12;;;;;;;;;;;;;;;;;;348611;28;893;-65
2022/10/01 01:05:22;;;;;;;;;;;;;;;;;;348610;28;937;-65
2022/10/01 01:05:32;;;;;;;;;;;;;;;;;;348486;28;1016;-65
2022/10/01 01:05:43;;;;;;;;;;;;;;;;;;348646;28;900;-64
2022/10/01 01:05:53;;;;;;;;;;;;;;;;;;348620;28;900;-64
2022/10/01 01:06:06;;;;;;;;;;;;;;;;;;348606;28;806;-65
2022/10/01 01:06:17;;;;;;;;;;;;;;;;;;348620;28;789;-65
2022/10/01 01:06:27;;;;;;;;;;;;;;;;;;348608;28;912;-65
2022/10/01 01:06:37;;;;;;;;;;;;;;;;;;348586;28;999;-65
2022/10/01 01:06:56;;;;;;;;;;;;;;;;;;348633;28;912;-65
2022/10/01 01:07:07;;;;;;;;;;;;;;;;;;348651;28;1016;-64
2022/10/01 01:07:18;;;;;;;;;;;;;;;;;;348615;28;975;-65
2022/10/01 01:07:30;;;;;;;;;;;;;;;;;;348598;28;979;-65
2022/10/01 01:07:44;;;;;;;;;;;;;;;;;;348518;28;992;-65
2022/10/01 01:07:54;;;;;;;;;;;;;;;;;;348587;28;1055;-65
2022/10/01 01:08:05;;;;;;;;;;;;;;;;;;348640;28;1071;-65
2022/10/01 01:08:16;;;;;;;;;;;;;;;;;;348639;28;784;-65
2022/10/01 01:08:26;;;;;;;;;;;;;;;;;;348594;28;913;-64
2022/10/01 01:08:36;;;;;;;;;;;;;;;;;;348618;28;830;-65
2022/10/01 01:08:54;;;;;;;;;;;;;;;;;;348583;28;877;-64
2022/10/01 01:09:04;;;;;;;;;;;;;;;;;;348615;28;810;-65
2022/10/01 01:09:14;;;;;;;;;;;;;;;;;;348615;28;841;-65
2022/10/01 01:09:28;;;;;;;;;;;;;;;;;;348563;28;1007;-65
2022/10/01 01:09:41;;;;;;;;;;;;;;;;;;348620;28;917;-65
2022/10/01 01:09:52;;;;;;;;;;;;;;;;;;348622;28;821;-65
2022/10/01 01:10:04;;;;;;;;;;;;;;;;;;348530;28;1004;-65
2022/10/01 01:10:16;;;;;;;;;;;;;;;;;;348583;28;921;-65
2022/10/01 01:10:47;;;;;;;;;;;;;;;;;;348620;28;924;-65
2022/10/01 01:10:58;;;;;;;;;;;;;;;;;;348552;28;940;-65
2022/10/01 01:11:21;;;;;;;;;;;;;;;;;;348607;28;920;-66
2022/10/01 01:11:50;;;;;;;;;;;;;;;;;;348587;28;1027;-65
2022/10/01 01:12:07;;;;;;;;;;;;;;;;;;348510;28;925;-65
2022/10/01 01:12:32;;;;;;;;;;;;;;;;;;348603;28;991;-65
2022/10/01 01:12:51;;;;;;;;;;;;;;;;;;348621;28;1100;-65
2022/10/01 01:13:01;;;;;;;;;;;;;;;;;;348575;28;956;-65
2022/10/01 01:13:14;;;;;;;;;;;;;;;;;;348289;28;1497;-65
2022/10/01 01:13:30;;;;;;;;;;;;;;;;;;349943;28;837;-65
2022/10/01 01:13:47;;;;;;;;;;;;;;;;;;349801;28;1969;-66
2022/10/01 01:14:04;;;;;;;;;;;;;;;;;;349902;28;964;-65
2022/10/01 01:14:21;;;;;;;;;;;;;;;;;;348824;28;1406;-65
2022/10/01 01:14:48;;;;;;;;;;;;;;;;;;349560;28;1749;-65
2022/10/01 01:15:22;;;;;;;;;;;;;;;;;;349979;28;908;-65
2022/10/01 01:15:40;;;;;;;;;;;;;;;;;;350032;28;869;-65
2022/10/01 01:15:50;;;;;;;;;;;;;;;;;;349991;28;865;-64
2022/10/01 01:16:21;;;;;;;;;;;;;;;;;;349917;28;932;-65
2022/10/01 01:16:37;;;;;;;;;;;;;;;;;;349586;28;1056;-65
2022/10/01 01:16:53;;;;;;;;;;;;;;;;;;350046;28;905;-65
2022/10/01 01:17:11;;;;;;;;;;;;;;;;;;350045;28;836;-65
2022/10/01 01:17:30;;;;;;;;;;;;;;;;;;349993;28;909;-65
2022/10/01 01:17:53;;;;;;;;;;;;;;;;;;349956;28;944;-65
2022/10/01 01:18:10;;;;;;;;;;;;;;;;;;349919;28;944;-65
2022/10/01 01:18:29;;;;;;;;;;;;;;;;;;350025;28;872;-64
2022/10/01 01:18:58;;;;;;;;;;;;;;;;;;348751;28;1845;-64
2022/10/01 01:19:27;;;;;;;;;;;;;;;;;;349964;28;1035;-65
2022/10/01 01:19:43;;;;;;;;;;;;;;;;;;349969;28;874;-65
2022/10/01 01:20:09;;;;;;;;;;;;;;;;;;349982;28;929;-64
2022/10/01 01:20:32;;;;;;;;;;;;;;;;;;350022;28;833;-65
2022/10/01 01:20:50;;;;;;;;;;;;;;;;;;349999;28;944;-64
2022/10/01 01:21:18;;;;;;;;;;;;;;;;;;349957;28;928;-64
2022/10/01 01:21:33;;;;;;;;;;;;;;;;;;348588;28;925;-64
2022/10/01 01:21:44;;;;;;;;;;;;;;;;;;348549;28;984;-65
2022/10/01 01:21:59;;;;;;;;;;;;;;;;;;348654;28;764;-64
2022/10/01 01:22:12;;;;;;;;;;;;;;;;;;348586;28;1007;-65
2022/10/01 01:22:25;;;;;;;;;;;;;;;;;;348541;28;862;-65
2022/10/01 01:22:36;;;;;;;;;;;;;;;;;;348591;28;1162;-64
2022/10/01 01:22:49;;;;;;;;;;;;;;;;;;348493;28;916;-65
2022/10/01 01:23:02;;;;;;;;;;;;;;;;;;348564;28;1023;-65
2022/10/01 01:23:13;;;;;;;;;;;;;;;;;;348521;28;987;-65
2022/10/01 01:23:34;;;;;;;;;;;;;;;;;;348630;28;901;-64
2022/10/01 01:23:47;;;;;;;;;;;;;;;;;;348532;28;953;-64
2022/10/01 01:24:03;;;;;;;;;;;;;;;;;;348587;28;1020;-64
2022/10/01 01:24:32;;;;;;;;;;;;;;;;;;348535;28;957;-65
2022/10/01 01:24:42;;;;;;;;;;;;;;;;;;348602;28;865;-65
2022/10/01 01:25:06;;;;;;;;;;;;;;;;;;348612;28;838;-64
2022/10/01 01:25:18;;;;;;;;;;;;;;;;;;348529;28;881;-64
2022/10/01 01:25:39;;;;;;;;;;;;;;;;;;348595;28;1097;-65
2022/10/01 01:26:06;;;;;;;;;;;;;;;;;;348627;28;818;-64
2022/10/01 01:26:19;;;;;;;;;;;;;;;;;;348595;28;1015;-64
2022/10/01 01:26:49;;;;;;;;;;;;;;;;;;348537;28;790;-64
2022/10/01 01:27:08;;;;;;;;;;;;;;;;;;348598;28;925;-64
2022/10/01 01:27:27;;;;;;;;;;;;;;;;;;348596;28;991;-64
2022/10/01 01:27:41;;;;;;;;;;;;;;;;;;348550;28;917;-64
2022/10/01 01:27:57;;;;;;;;;;;;;;;;;;348105;28;2167;-64
2022/10/01 01:28:30;;;;;;;;;;;;;;;;;;348735;28;2250;-65
2022/10/01 01:28:46;;;;;;;;;;;;;;;;;;349047;28;2201;-64
2022/10/01 01:28:58;;;;;;;;;;;;;;;;;;351375;28;896;-64